createdAt,value
2017-04-06T00:02:09.264Z,0
2017-04-06T00:12:09.251Z,0
2017-04-06T00:22:09.291Z,0
2017-04-06T00:32:09.257Z,0
2017-04-06T00:42:09.338Z,0
2017-04-06T00:52:09.292Z,0
2017-04-06T01:02:09.346Z,0
2017-04-06T01:12:09.343Z,0
2017-04-06T01:22:09.289Z,0
2017-04-06T01:32:09.271Z,0
2017-04-06T01:42:09.289Z,0
2017-04-06T01:52:09.254Z,0
2017-04-06T02:02:09.337Z,0
2017-04-06T02:12:09.300Z,0
2017-04-06T02:22:09.267Z,0
2017-04-06T02:32:09.316Z,0
2017-04-06T02:42:09.264Z,0
2017-04-06T02:52:09.276Z,0
2017-04-06T03:02:09.299Z,0
2017-04-06T03:12:09.284Z,0
2017-04-06T03:22:09.228Z,0
2017-04-06T03:32:09.194Z,0
2017-04-06T03:42:09.276Z,0
2017-04-06T03:52:09.314Z,0
2017-04-06T04:02:09.250Z,0
2017-04-06T04:12:09.234Z,0
2017-04-06T04:22:09.276Z,0
2017-04-06T04:32:09.234Z,0
2017-04-06T04:42:09.215Z,0
2017-04-06T04:52:09.272Z,0
2017-04-06T05:02:09.254Z,10
2017-04-06T05:12:09.215Z,30
2017-04-06T05:22:09.274Z,45
2017-04-06T05:32:09.248Z,40
2017-04-06T05:42:09.301Z,30
2017-04-06T05:52:09.221Z,85
2017-04-06T06:02:09.206Z,95
2017-04-06T06:12:09.285Z,60
2017-04-06T06:22:09.253Z,145
2017-04-06T06:32:09.184Z,180
2017-04-06T06:42:09.266Z,140
2017-04-06T06:52:09.257Z,180
2017-04-06T07:02:09.306Z,170
2017-04-06T07:12:09.237Z,220
2017-04-06T07:22:09.251Z,280
2017-04-06T07:32:09.279Z,300
2017-04-06T07:42:09.734Z,290
2017-04-06T07:52:09.192Z,305
2017-04-06T08:02:09.411Z,260
2017-04-06T08:12:09.208Z,285
2017-04-06T08:22:09.259Z,370
2017-04-06T08:32:09.234Z,335
2017-04-06T08:42:09.304Z,230
2017-04-06T08:52:09.247Z,260
2017-04-06T09:02:09.225Z,330
2017-04-06T09:12:09.193Z,400
2017-04-06T09:22:09.261Z,240
2017-04-06T09:32:09.208Z,300
2017-04-06T09:42:13.752Z,375
2017-04-06T09:52:10.298Z,390
2017-04-06T10:02:13.989Z,360
2017-04-06T10:12:12.052Z,360
2017-04-06T10:22:09.211Z,390
2017-04-06T10:32:09.168Z,325
2017-04-06T10:42:09.249Z,240
2017-04-06T10:52:09.242Z,175
2017-04-06T11:02:09.173Z,350
2017-04-06T11:12:09.221Z,300
2017-04-06T11:22:09.167Z,270
2017-04-06T11:32:09.262Z,220
2017-04-06T11:42:09.761Z,310
2017-04-06T11:52:09.298Z,195
2017-04-06T12:02:09.231Z,210
2017-04-06T12:12:12.768Z,230
2017-04-06T12:22:09.255Z,340
2017-04-06T12:32:09.222Z,200
2017-04-06T12:42:09.263Z,345
2017-04-06T12:52:09.880Z,260
2017-04-06T13:02:11.271Z,180
2017-04-06T13:12:19.633Z,300
2017-04-06T13:22:09.221Z,310
2017-04-06T13:32:09.193Z,260
2017-04-06T13:42:10.296Z,235
2017-04-06T13:52:09.182Z,185
2017-04-06T14:02:09.243Z,265
2017-04-06T14:12:09.237Z,305
2017-04-06T14:22:19.147Z,235
2017-04-06T14:32:09.258Z,235
2017-04-06T14:42:09.214Z,160
2017-04-06T14:52:09.308Z,210
2017-04-06T15:02:09.243Z,205
2017-04-06T15:12:09.190Z,210
2017-04-06T15:22:10.199Z,205
2017-04-06T15:32:09.246Z,160
2017-04-06T15:42:09.175Z,140
2017-04-06T15:52:09.207Z,165
2017-04-06T16:02:09.177Z,135
2017-04-06T16:12:09.161Z,125
2017-04-06T16:22:09.167Z,115
2017-04-06T16:32:09.152Z,115
2017-04-06T16:42:09.176Z,115
2017-04-06T16:52:09.171Z,80
2017-04-06T17:02:09.189Z,75
2017-04-06T17:12:09.179Z,55
2017-04-06T17:22:09.171Z,40
2017-04-06T17:32:09.195Z,30
2017-04-06T17:42:09.212Z,25
2017-04-06T17:52:09.249Z,15
2017-04-06T18:02:09.190Z,10
2017-04-06T18:12:09.182Z,5
2017-04-06T18:22:09.307Z,0
2017-04-06T18:32:09.353Z,0
2017-04-06T18:42:09.304Z,0
2017-04-06T18:52:09.285Z,0
2017-04-06T19:02:09.177Z,0
2017-04-06T19:12:09.367Z,0
2017-04-06T19:22:11.471Z,0
2017-04-06T19:32:10.081Z,0
2017-04-06T19:42:10.470Z,0
2017-04-06T19:52:15.929Z,0
2017-04-06T20:12:17.355Z,0
2017-04-06T20:22:15.377Z,0
2017-04-06T20:32:21.714Z,0
2017-04-06T20:42:12.288Z,0
2017-04-06T20:52:10.246Z,0
2017-04-06T21:02:09.287Z,0
2017-04-06T21:12:09.291Z,0
2017-04-06T21:22:09.319Z,0
2017-04-06T21:32:12.359Z,0
2017-04-06T21:42:10.027Z,0
2017-04-06T21:52:09.955Z,0
2017-04-06T22:02:09.341Z,0
2017-04-06T22:12:09.245Z,0
2017-04-06T22:22:09.732Z,0
2017-04-06T22:32:09.150Z,0
2017-04-06T22:42:09.259Z,0
2017-04-06T22:52:09.198Z,0
2017-04-06T23:02:09.140Z,0
2017-04-06T23:12:09.225Z,0
2017-04-06T23:22:09.160Z,0
2017-04-06T23:32:09.233Z,0
2017-04-06T23:42:09.184Z,0
2017-04-06T23:52:09.166Z,0
